createdAt,value
2022-12-19T00:01:32.097Z,99841.06
2022-12-19T00:03:33.830Z,99829.16
2022-12-19T00:05:40.022Z,99824.94
2022-12-19T00:07:41.658Z,99815.19
2022-12-19T00:09:43.224Z,99814.34
2022-12-19T00:11:44.950Z,99819.91
2022-12-19T00:13:47.348Z,99810.13
2022-12-19T00:15:48.912Z,99821.72
2022-12-19T00:17:50.660Z,99808.31
2022-12-19T00:19:52.491Z,99815.38
2022-12-19T00:21:56.219Z,99804.75
2022-12-19T00:23:58.725Z,99792.38
2022-12-19T00:26:11.527Z,99781.63
2022-12-19T00:28:14.139Z,99828.28
2022-12-19T00:30:15.782Z,99844.06
2022-12-19T00:32:17.465Z,99800.25
2022-12-19T00:34:18.987Z,99822.91
2022-12-19T00:36:26.000Z,99820.88
2022-12-19T00:38:28.552Z,99793.19
2022-12-19T00:40:30.669Z,99808.47
2022-12-19T00:42:32.344Z,99812.81
2022-12-19T00:44:34.002Z,99800.56
2022-12-19T00:46:36.437Z,99806.78
2022-12-19T00:48:37.998Z,99825.59
2022-12-19T00:50:39.670Z,99814.84
2022-12-19T00:52:41.164Z,99817.53
2022-12-19T00:54:42.722Z,99809.63
2022-12-19T00:56:44.497Z,99805.09
2022-12-19T00:58:47.276Z,99805.09
2022-12-19T01:00:49.194Z,99808.78
2022-12-19T01:02:55.931Z,99794.69
2022-12-19T01:04:57.786Z,99792.31
2022-12-19T01:07:02.275Z,99770.84
2022-12-19T01:09:08.460Z,99787.63
2022-12-19T01:11:10.496Z,99793.16
2022-12-19T01:13:12.102Z,99784.41
2022-12-19T01:15:21.032Z,99787.41
2022-12-19T01:17:23.169Z,99781.22
2022-12-19T01:19:27.825Z,99795.47
2022-12-19T01:21:29.569Z,99806.22
2022-12-19T01:23:31.303Z,99807.06
2022-12-19T01:25:37.932Z,99803.53
2022-12-19T01:27:42.204Z,99808.09
2022-12-19T01:29:51.752Z,99793.31
2022-12-19T01:31:54.234Z,99788.13
2022-12-19T01:33:55.929Z,99783.75
2022-12-19T01:35:58.125Z,99784.72
2022-12-19T01:38:08.440Z,99784.91
2022-12-19T01:40:12.785Z,99790.28
2022-12-19T01:42:23.248Z,99794.78
2022-12-19T01:44:26.216Z,99785.88
2022-12-19T01:46:39.776Z,99797.66
2022-12-19T01:48:43.978Z,99792.28
2022-12-19T01:51:13.076Z,99802.84
2022-12-19T01:53:15.002Z,99802.00
2022-12-19T01:55:16.583Z,99811.75
2022-12-19T01:57:20.118Z,99796.50
2022-12-19T01:59:41.426Z,99792.09
2022-12-19T02:01:51.789Z,99779.34
2022-12-19T02:03:58.711Z,99784.22
2022-12-19T02:06:04.551Z,99780.53
2022-12-19T02:08:07.262Z,99787.75
2022-12-19T02:10:09.519Z,99774.34
2022-12-19T02:12:11.327Z,99780.53
2022-12-19T02:14:13.094Z,99788.56
2022-12-19T02:16:27.486Z,99805.72
2022-12-19T02:18:40.344Z,99798.50
2022-12-19T02:20:46.474Z,99789.59
2022-12-19T02:23:25.592Z,99791.44
2022-12-19T02:25:49.627Z,99796.97
2022-12-19T02:28:24.223Z,99795.97
2022-12-19T02:30:42.371Z,99810.53
2022-12-19T02:33:02.139Z,99814.09
2022-12-19T02:35:40.730Z,99821.16
2022-12-19T02:37:55.613Z,99817.44
2022-12-19T02:40:06.502Z,99816.44
2022-12-19T02:42:14.931Z,99814.94
2022-12-19T02:44:40.415Z,99800.47
2022-12-19T02:46:44.765Z,99790.28
2022-12-19T02:48:48.628Z,99792.97
2022-12-19T02:50:51.210Z,99792.97
2022-12-19T02:52:53.671Z,99784.72
2022-12-19T02:55:01.735Z,99782.75
2022-12-19T02:57:16.163Z,99787.28
2022-12-19T02:59:52.594Z,99794.34
2022-12-19T03:02:12.306Z,99778.69
2022-12-19T03:04:35.165Z,99768.47
2022-12-19T03:06:49.563Z,99772.16
2022-12-19T03:09:06.052Z,99774.69
2022-12-19T03:11:10.556Z,99787.09
2022-12-19T03:13:45.246Z,99777.53
2022-12-19T03:15:47.587Z,99756.88
2022-12-19T03:17:50.345Z,99764.94
2022-12-19T03:19:53.279Z,99769.63
2022-12-19T03:21:55.066Z,99772.16
2022-12-19T03:23:58.753Z,99764.94
2022-12-19T03:26:10.855Z,99768.63
2022-12-19T03:28:20.598Z,99754.06
2022-12-19T03:30:22.517Z,99766.47
2022-12-19T03:32:25.262Z,99762.09
2022-12-19T03:34:36.376Z,99755.03
2022-12-19T03:36:42.734Z,99752.03
2022-12-19T03:38:45.975Z,99759.44
2022-12-19T03:40:49.061Z,99743.31
2022-12-19T03:43:13.820Z,99763.09
2022-12-19T03:45:26.383Z,99759.56
2022-12-19T03:47:36.063Z,99745.28
2022-12-19T03:49:37.899Z,99750.53
2022-12-19T03:51:52.686Z,99763.09
2022-12-19T03:54:07.563Z,99741.63
2022-12-19T03:56:17.676Z,99750.53
2022-12-19T03:58:27.173Z,99749.50
2022-12-19T04:00:33.208Z,99735.41
2022-12-19T04:02:38.353Z,99752.34
2022-12-19T04:04:46.676Z,99716.44
2022-12-19T04:06:49.299Z,99712.75
2022-12-19T04:08:51.255Z,99704.88
2022-12-19T04:11:01.638Z,99701.34
2022-12-19T04:13:52.767Z,99704.03
2022-12-19T04:16:39.439Z,99708.88
2022-12-19T04:18:51.599Z,99720.44
2022-12-19T04:21:00.832Z,99730.03
2022-12-19T04:23:10.691Z,99742.78
2022-12-19T04:25:29.373Z,99764.41
2022-12-19T04:27:35.020Z,99762.25
2022-12-19T04:29:38.391Z,99753.34
2022-12-19T04:31:40.450Z,99759.44
2022-12-19T04:33:42.471Z,99763.94
2022-12-19T04:35:44.234Z,99741.44
2022-12-19T04:37:46.249Z,99753.03
2022-12-19T04:39:47.868Z,99767.13
2022-12-19T04:41:49.336Z,99744.66
2022-12-19T04:43:51.053Z,99742.63
2022-12-19T04:45:57.355Z,99753.38
2022-12-19T04:47:59.525Z,99750.56
2022-12-19T04:50:01.119Z,99763.81
2022-12-19T04:52:02.756Z,99766.00
2022-12-19T04:54:04.398Z,99752.56
2022-12-19T04:56:09.772Z,99738.63
2022-12-19T04:58:11.366Z,99733.94
2022-12-19T05:00:13.891Z,99746.53
2022-12-19T05:02:15.561Z,99747.38
2022-12-19T05:04:17.396Z,99735.78
2022-12-19T05:06:19.862Z,99733.94
2022-12-19T05:08:21.511Z,99744.38
2022-12-19T05:10:23.203Z,99732.78
2022-12-19T05:12:24.802Z,99745.34
2022-12-19T05:14:26.951Z,99736.31
2022-12-19T05:16:28.680Z,99739.00
2022-12-19T05:18:31.216Z,99746.69
2022-12-19T05:20:33.030Z,99747.72
2022-12-19T05:22:37.138Z,99743.88
2022-12-19T05:24:39.085Z,99754.28
2022-12-19T05:26:41.097Z,99754.44
2022-12-19T05:28:42.897Z,99755.47
2022-12-19T05:30:50.611Z,99757.13
2022-12-19T05:32:55.503Z,99765.03
2022-12-19T05:35:00.129Z,99761.31
2022-12-19T05:37:03.611Z,99749.41
2022-12-19T05:39:05.463Z,99745.72
2022-12-19T05:41:09.024Z,99742.88
2022-12-19T05:43:11.817Z,99741.19
2022-12-19T05:45:16.354Z,99743.72
2022-12-19T05:47:26.121Z,99745.91
2022-12-19T05:49:27.857Z,99742.38
2022-12-19T05:51:29.699Z,99749.44
2022-12-19T05:53:34.232Z,99740.53
2022-12-19T05:55:35.821Z,99750.41
2022-12-19T05:57:37.858Z,99743.22
2022-12-19T05:59:40.132Z,99740.38
2022-12-19T06:01:48.443Z,99732.66
2022-12-19T06:03:53.964Z,99728.28
2022-12-19T06:05:55.780Z,99722.06
2022-12-19T06:07:57.842Z,99711.31
2022-12-19T06:09:59.779Z,99710.47
2022-12-19T06:12:01.445Z,99709.47
2022-12-19T06:14:03.543Z,99714.84
2022-12-19T06:16:17.151Z,99714.50
2022-12-19T06:18:18.833Z,99719.03
2022-12-19T06:20:20.495Z,99708.13
2022-12-19T06:22:22.025Z,99709.13
2022-12-19T06:24:26.715Z,99712.81
2022-12-19T06:26:34.846Z,99720.56
2022-12-19T06:28:36.475Z,99715.69
2022-12-19T06:30:38.044Z,99706.47
2022-12-19T06:32:43.004Z,99708.44
2022-12-19T06:35:03.751Z,99696.03
2022-12-19T06:37:08.246Z,99697.69
2022-12-19T06:39:14.465Z,99697.69
2022-12-19T06:41:36.286Z,99691.34
2022-12-19T06:43:40.856Z,99695.53
2022-12-19T06:45:42.417Z,99698.22
2022-12-19T06:47:44.107Z,99694.34
2022-12-19T06:49:48.438Z,99695.03
2022-12-19T06:51:50.033Z,99699.72
2022-12-19T06:53:54.844Z,99704.94
2022-12-19T06:55:58.286Z,99706.63
2022-12-19T06:57:59.800Z,99703.09
2022-12-19T07:00:01.903Z,99704.28
2022-12-19T07:02:12.400Z,99694.38
2022-12-19T07:04:19.395Z,99702.44
2022-12-19T07:06:20.978Z,99693.53
2022-12-19T07:08:22.729Z,99700.59
2022-12-19T07:10:24.549Z,99704.78
2022-12-19T07:12:33.439Z,99698.91
2022-12-19T07:14:35.088Z,99698.91
2022-12-19T07:16:40.535Z,99698.72
2022-12-19T07:18:45.284Z,99693.19
2022-12-19T07:20:46.950Z,99691.50
2022-12-19T07:22:49.139Z,99696.69
2022-12-19T07:24:51.212Z,99692.34
2022-12-19T07:26:52.812Z,99688.63
2022-12-19T07:28:56.239Z,99684.94
2022-12-19T07:30:57.849Z,99686.47
2022-12-19T07:32:59.512Z,99691.66
2022-12-19T07:35:03.406Z,99683.59
2022-12-19T07:37:05.084Z,99686.13
2022-12-19T07:39:06.770Z,99677.03
2022-12-19T07:41:11.285Z,99684.94
2022-12-19T07:43:12.961Z,99684.44
2022-12-19T07:45:15.030Z,99671.66
2022-12-19T07:47:16.688Z,99676.88
2022-12-19T07:49:22.484Z,99676.69
2022-12-19T07:51:24.809Z,99676.34
2022-12-19T07:53:30.491Z,99674.50
2022-12-19T07:55:34.778Z,99682.06
2022-12-19T07:57:36.446Z,99689.09
2022-12-19T07:59:39.434Z,99692.63
2022-12-19T08:01:41.436Z,99699.88
2022-12-19T08:03:43.750Z,99709.28
2022-12-19T08:05:45.598Z,99707.78
2022-12-19T08:07:47.221Z,99711.81
2022-12-19T08:09:48.928Z,99720.53
2022-12-19T08:11:50.555Z,99719.34
2022-12-19T08:13:52.923Z,99719.88
2022-12-19T08:15:54.804Z,99710.44
2022-12-19T08:17:56.640Z,99703.38
2022-12-19T08:19:58.362Z,99705.88
2022-12-19T08:22:01.901Z,99698.16
2022-12-19T08:24:03.756Z,99693.59
2022-12-19T08:26:14.647Z,99698.31
2022-12-19T08:28:16.172Z,99694.44
2022-12-19T08:30:20.850Z,99708.41
2022-12-19T08:32:22.409Z,99703.84
2022-12-19T08:34:24.182Z,99695.78
2022-12-19T08:36:26.165Z,99699.63
2022-12-19T08:38:28.581Z,99704.34
2022-12-19T08:40:30.236Z,99690.03
2022-12-19T08:42:33.484Z,99681.13
2022-12-19T08:44:34.958Z,99685.50
2022-12-19T08:46:38.957Z,99686.16
2022-12-19T08:48:43.539Z,99682.94
2022-12-19T08:50:54.740Z,99678.59
2022-12-19T08:52:56.332Z,99684.63
2022-12-19T08:55:00.684Z,99685.94
2022-12-19T08:57:02.311Z,99672.50
2022-12-19T08:59:04.753Z,99680.22
2022-12-19T09:01:11.491Z,99679.22
2022-12-19T09:03:13.159Z,99688.13
2022-12-19T09:06:01.554Z,99679.22
2022-12-19T09:07:39.671Z,99671.97
2022-12-19T09:09:41.569Z,99685.94
2022-12-19T09:11:48.258Z,99676.47
2022-12-19T09:13:51.603Z,99693.47
2022-12-19T09:16:06.896Z,99685.41
2022-12-19T09:18:08.460Z,99694.97
2022-12-19T09:20:10.858Z,99693.78
2022-12-19T09:22:12.484Z,99691.59
2022-12-19T09:24:14.608Z,99686.53
2022-12-19T09:26:21.578Z,99683.50
2022-12-19T09:28:28.024Z,99693.22
2022-12-19T09:30:30.171Z,99690.69
2022-12-19T09:32:33.500Z,99693.00
2022-12-19T09:34:39.099Z,99701.09
2022-12-19T09:36:41.151Z,99687.63
2022-12-19T09:38:44.607Z,99689.97
2022-12-19T09:40:58.938Z,99695.53
2022-12-19T09:43:33.996Z,99698.03
2022-12-19T09:45:55.925Z,99705.97
2022-12-19T09:47:59.093Z,99701.91
2022-12-19T09:50:16.942Z,99699.00
2022-12-19T09:52:25.844Z,99716.34
2022-12-19T09:54:43.580Z,99713.28
2022-12-19T09:56:48.002Z,99708.41
2022-12-19T09:59:00.508Z,99706.06
2022-12-19T10:01:08.267Z,99703.47
2022-12-19T10:03:39.697Z,99697.25
2022-12-19T10:07:08.761Z,99690.66
2022-12-19T10:08:31.640Z,99692.16
2022-12-19T10:12:39.944Z,99685.09
2022-12-19T10:13:28.841Z,99677.00
2022-12-19T10:15:56.259Z,99674.97
2022-12-19T10:18:24.563Z,99661.31
2022-12-19T10:20:34.094Z,99674.28
2022-12-19T10:22:44.753Z,99661.44
2022-12-19T10:25:12.000Z,99660.25
2022-12-19T10:27:22.197Z,99665.09
2022-12-19T10:29:48.474Z,99653.47
2022-12-19T10:32:05.430Z,99642.13
2022-12-19T10:34:09.602Z,99652.91
2022-12-19T10:36:14.049Z,99657.41
2022-12-19T10:38:21.298Z,99661.59
2022-12-19T10:40:44.140Z,99669.88
2022-12-19T10:43:01.617Z,99665.34
2022-12-19T10:45:18.987Z,99652.31
2022-12-19T10:47:20.750Z,99647.06
2022-12-19T10:49:28.395Z,99653.09
2022-12-19T10:51:31.820Z,99646.97
2022-12-19T10:53:33.648Z,99651.56
2022-12-19T10:55:43.899Z,99650.25
2022-12-19T10:57:45.745Z,99655.66
2022-12-19T11:00:03.167Z,99648.78
2022-12-19T11:02:22.477Z,99633.72
2022-12-19T11:04:33.914Z,99618.53
2022-12-19T11:07:21.290Z,99618.09
2022-12-19T11:09:30.635Z,99617.06
2022-12-19T11:13:14.438Z,99605.63
2022-12-19T11:19:08.942Z,99603.56
2022-12-19T11:20:52.189Z,99601.63
2022-12-19T11:29:17.392Z,99597.91
2022-12-19T11:29:31.660Z,99608.88
2022-12-19T11:30:21.351Z,99595.94
2022-12-19T11:30:25.575Z,99599.50
2022-12-19T11:32:36.662Z,99575.47
2022-12-19T11:34:28.029Z,99584.41
2022-12-19T11:36:41.449Z,99592.13
2022-12-19T11:38:54.169Z,99579.47
2022-12-19T11:41:01.422Z,99575.75
2022-12-19T11:46:19.572Z,99574.97
2022-12-19T11:48:40.067Z,99562.16
2022-12-19T11:51:06.496Z,99550.94
2022-12-19T11:53:19.483Z,99542.69
2022-12-19T11:55:41.049Z,99554.59
2022-12-19T11:57:43.296Z,99557.75
2022-12-19T11:59:48.244Z,99551.31
2022-12-19T12:02:21.278Z,99554.03
2022-12-19T12:04:48.632Z,99542.84
2022-12-19T12:06:57.810Z,99537.03
2022-12-19T12:12:38.526Z,99542.91
2022-12-19T12:18:12.744Z,99533.78
2022-12-19T12:25:57.193Z,99527.56
2022-12-19T12:30:53.635Z,99514.69
2022-12-19T12:31:19.292Z,99527.03
2022-12-19T12:31:40.798Z,99521.66
2022-12-19T12:31:51.383Z,99536.22
2022-12-19T12:31:51.384Z,99530.50
2022-12-19T12:35:47.069Z,99500.16
2022-12-19T12:39:33.843Z,99482.94
2022-12-19T12:42:04.454Z,99497.16
2022-12-19T12:44:12.177Z,99491.09
2022-12-19T12:46:26.396Z,99499.53
2022-12-19T12:48:34.248Z,99497.84
2022-12-19T12:50:37.338Z,99498.94
2022-12-19T12:52:42.814Z,99489.13
2022-12-19T12:54:47.441Z,99499.94
2022-12-19T12:56:49.057Z,99503.13
2022-12-19T12:59:06.177Z,99496.88
2022-12-19T13:01:17.521Z,99489.34
2022-12-19T13:03:19.812Z,99479.56
2022-12-19T13:05:37.654Z,99478.16
2022-12-19T13:07:50.296Z,99474.22
2022-12-19T13:10:17.824Z,99468.22
2022-12-19T13:12:46.260Z,99474.09
2022-12-19T13:14:52.405Z,99477.81
2022-12-19T13:16:54.655Z,99486.56
2022-12-19T13:19:19.572Z,99489.91
2022-12-19T13:21:23.405Z,99479.09
2022-12-19T13:23:43.944Z,99478.91
2022-12-19T13:25:45.708Z,99488.66
2022-12-19T13:27:48.308Z,99473.09
2022-12-19T13:30:15.091Z,99475.16
2022-12-19T13:32:17.334Z,99477.84
2022-12-19T13:34:19.750Z,99474.97
2022-12-19T13:39:56.399Z,99480.53
2022-12-19T13:39:57.713Z,99480.47
2022-12-19T13:42:18.591Z,99473.44
2022-12-19T13:44:22.402Z,99480.28
2022-12-19T13:46:39.493Z,99478.16
2022-12-19T13:48:53.211Z,99474.41
2022-12-19T13:51:00.256Z,99467.97
2022-12-19T13:53:02.330Z,99458.63
2022-12-19T13:55:04.236Z,99457.63
2022-12-19T13:57:28.107Z,99455.94
2022-12-19T13:59:36.361Z,99462.22
2022-12-19T14:01:40.986Z,99453.09
2022-12-19T14:03:47.197Z,99457.66
2022-12-19T14:06:16.348Z,99462.84
2022-12-19T14:08:17.632Z,99463.94
2022-12-19T14:11:36.136Z,99473.72
2022-12-19T14:13:57.463Z,99468.25
2022-12-19T14:15:36.886Z,99453.94
2022-12-19T14:17:38.514Z,99451.47
2022-12-19T14:19:43.433Z,99456.28
2022-12-19T14:22:10.915Z,99456.66
2022-12-19T14:24:25.058Z,99464.38
2022-12-19T14:28:18.320Z,99464.66
2022-12-19T14:29:03.414Z,99464.06
2022-12-19T14:31:11.649Z,99461.56
2022-12-19T14:33:46.308Z,99458.63
2022-12-19T14:36:10.736Z,99456.31
2022-12-19T14:39:20.588Z,99466.75
2022-12-19T14:40:42.819Z,99463.66
2022-12-19T14:43:56.641Z,99451.53
2022-12-19T14:53:34.401Z,99442.75
2022-12-19T14:54:05.096Z,99428.13
2022-12-19T14:54:13.315Z,99441.44
2022-12-19T14:54:22.082Z,99432.31
2022-12-19T14:58:52.606Z,99427.75
2022-12-19T15:01:10.011Z,99441.66
2022-12-19T15:03:21.972Z,99439.78
2022-12-19T15:05:24.213Z,99438.75
2022-12-19T15:07:29.471Z,99444.66
2022-12-19T15:10:59.425Z,99444.91
2022-12-19T15:14:46.739Z,99450.53
2022-12-19T15:15:02.917Z,99445.13
2022-12-19T15:17:25.517Z,99439.00
2022-12-19T15:19:27.133Z,99450.97
2022-12-19T15:21:34.534Z,99449.50
2022-12-19T15:23:36.350Z,99450.38
2022-12-19T15:26:03.246Z,99460.31
2022-12-19T15:28:05.908Z,99455.31
2022-12-19T15:30:14.967Z,99452.53
2022-12-19T15:32:18.265Z,99445.09
2022-12-19T15:34:34.914Z,99444.66
2022-12-19T15:36:42.427Z,99442.81
2022-12-19T15:38:45.715Z,99445.72
2022-12-19T15:40:48.168Z,99446.34
2022-12-19T15:42:55.841Z,99444.09
2022-12-19T15:45:02.119Z,99442.19
2022-12-19T15:47:07.074Z,99438.69
2022-12-19T15:49:16.435Z,99437.22
2022-12-19T15:51:18.229Z,99440.31
2022-12-19T15:53:40.254Z,99435.91
2022-12-19T15:55:44.280Z,99428.84
2022-12-19T15:58:06.313Z,99422.13
2022-12-19T16:00:31.938Z,99418.78
2022-12-19T16:05:03.531Z,99422.97
2022-12-19T16:07:16.274Z,99427.75
2022-12-19T16:09:24.585Z,99418.16
2022-12-19T16:11:26.475Z,99413.59
2022-12-19T16:13:31.123Z,99419.81
2022-12-19T16:15:34.482Z,99425.22
2022-12-19T16:17:38.069Z,99409.19
2022-12-19T16:19:42.586Z,99409.84
2022-12-19T16:21:47.242Z,99399.47
2022-12-19T16:23:49.063Z,99394.44
2022-12-19T16:25:52.055Z,99398.44
2022-12-19T16:27:56.564Z,99389.88
2022-12-19T16:30:07.295Z,99379.06
2022-12-19T16:32:13.481Z,99379.44
2022-12-19T16:34:17.283Z,99375.06
2022-12-19T16:36:19.179Z,99388.59
2022-12-19T16:38:20.738Z,99387.78
2022-12-19T16:40:26.122Z,99386.72
2022-12-19T16:42:30.232Z,99388.41
2022-12-19T16:44:34.452Z,99389.03
2022-12-19T16:46:36.230Z,99388.19
2022-12-19T16:48:38.165Z,99389.88
2022-12-19T16:50:39.846Z,99374.88
2022-12-19T16:52:42.830Z,99383.22
2022-12-19T16:54:47.687Z,99386.19
2022-12-19T16:56:52.070Z,99388.47
2022-12-19T16:58:57.145Z,99371.13
2022-12-19T17:00:58.823Z,99370.53
2022-12-19T17:03:17.230Z,99364.06
2022-12-19T17:05:26.152Z,99359.72
2022-12-19T17:07:29.113Z,99366.38
2022-12-19T17:09:30.794Z,99367.38
2022-12-19T17:11:33.001Z,99362.44
2022-12-19T17:13:34.830Z,99362.81
2022-12-19T17:15:38.802Z,99359.28
2022-12-19T17:17:40.709Z,99369.25
2022-12-19T17:19:45.115Z,99369.25
2022-12-19T17:21:48.097Z,99366.75
2022-12-19T17:23:50.328Z,99377.56
2022-12-19T17:25:54.949Z,99366.13
2022-12-19T17:27:56.955Z,99360.97
2022-12-19T17:30:00.134Z,99365.72
2022-12-19T17:32:02.273Z,99367.78
2022-12-19T17:34:06.574Z,99359.50
2022-12-19T17:36:13.280Z,99362.88
2022-12-19T17:38:17.534Z,99359.91
2022-12-19T17:40:31.075Z,99354.25
2022-12-19T17:42:37.319Z,99349.25
2022-12-19T17:44:43.287Z,99348.44
2022-12-19T17:46:47.355Z,99358.81
2022-12-19T17:48:51.965Z,99372.34
2022-12-19T17:50:54.959Z,99379.41
2022-12-19T17:52:57.071Z,99379.41
2022-12-19T17:54:58.677Z,99375.28
2022-12-19T17:57:10.586Z,99382.75
2022-12-19T17:59:24.635Z,99387.31
2022-12-19T18:01:26.707Z,99370.06
2022-12-19T18:03:31.822Z,99379.44
2022-12-19T18:05:37.513Z,99383.63
2022-12-19T18:07:39.191Z,99383.63
2022-12-19T18:09:40.937Z,99382.03
2022-12-19T18:11:42.624Z,99381.19
2022-12-19T18:13:44.420Z,99378.22
2022-12-19T18:15:46.504Z,99376.75
2022-12-19T18:17:50.430Z,99375.28
2022-12-19T18:19:52.503Z,99371.94
2022-12-19T18:21:54.145Z,99380.22
2022-12-19T18:23:56.116Z,99380.84
2022-12-19T18:26:02.352Z,99389.78
2022-12-19T18:28:10.554Z,99403.53
2022-12-19T18:30:16.090Z,99401.22
2022-12-19T18:32:19.252Z,99397.66
2022-12-19T18:34:27.120Z,99401.22
2022-12-19T18:36:30.208Z,99395.59
2022-12-19T18:38:31.885Z,99397.47
2022-12-19T18:40:43.004Z,99403.06
2022-12-19T18:42:45.577Z,99411.81
2022-12-19T18:44:47.617Z,99406.41
2022-12-19T18:46:50.675Z,99405.56
2022-12-19T18:48:52.383Z,99407.69
2022-12-19T18:50:58.322Z,99405.00
2022-12-19T18:53:00.893Z,99404.34
2022-12-19T18:55:02.912Z,99404.34
2022-12-19T18:57:04.511Z,99404.94
2022-12-19T18:59:06.959Z,99408.03
2022-12-19T19:01:16.051Z,99412.44
2022-12-19T19:03:27.214Z,99402.00
2022-12-19T19:05:31.342Z,99411.97
2022-12-19T19:07:42.137Z,99413.69
2022-12-19T19:09:44.136Z,99417.06
2022-12-19T19:12:06.132Z,99403.06
2022-12-19T19:14:11.682Z,99415.13
2022-12-19T19:16:18.227Z,99401.59
2022-12-19T19:18:24.293Z,99384.94
2022-12-19T19:20:29.032Z,99383.47
2022-12-19T19:22:31.012Z,99377.63
2022-12-19T19:24:37.051Z,99386.97
2022-12-19T19:26:38.721Z,99388.00
2022-12-19T19:28:40.542Z,99385.13
2022-12-19T19:30:46.203Z,99385.13
2022-12-19T19:32:59.553Z,99386.13
2022-12-19T19:35:02.788Z,99385.91
2022-12-19T19:37:09.852Z,99383.47
2022-12-19T19:39:13.118Z,99379.09
2022-12-19T19:41:14.811Z,99380.38
2022-12-19T19:43:16.690Z,99381.19
2022-12-19T19:45:18.580Z,99391.34
2022-12-19T19:47:28.237Z,99387.81
2022-12-19T19:49:30.023Z,99399.88
2022-12-19T19:51:34.284Z,99389.69
2022-12-19T19:53:40.208Z,99385.75
2022-12-19T19:56:03.699Z,99385.28
2022-12-19T19:58:05.327Z,99380.13
2022-12-19T20:00:10.937Z,99379.28
2022-12-19T20:02:16.825Z,99375.31
2022-12-19T20:04:18.839Z,99373.22
2022-12-19T20:06:20.417Z,99365.72
2022-12-19T20:08:38.841Z,99366.75
2022-12-19T20:10:54.098Z,99378.41
2022-12-19T20:13:00.307Z,99386.75
2022-12-19T20:15:05.386Z,99397.97
2022-12-19T20:17:07.351Z,99397.16
2022-12-19T20:19:09.438Z,99386.34
2022-12-19T20:21:13.462Z,99391.34
2022-12-19T20:23:15.700Z,99392.16
2022-12-19T20:25:18.062Z,99391.34
2022-12-19T20:27:19.637Z,99383.63
2022-12-19T20:29:24.686Z,99385.91
2022-12-19T20:31:26.784Z,99381.13
2022-12-19T20:33:36.909Z,99384.66
2022-12-19T20:35:40.835Z,99384.28
2022-12-19T20:37:42.742Z,99374.72
2022-12-19T20:39:45.045Z,99372.63
2022-12-19T20:41:52.473Z,99362.66
2022-12-19T20:43:54.309Z,99366.38
2022-12-19T20:46:14.477Z,99370.50
2022-12-19T20:48:16.189Z,99376.78
2022-12-19T20:50:20.352Z,99375.09
2022-12-19T20:52:23.681Z,99376.56
2022-12-19T20:54:27.895Z,99375.91
2022-12-19T20:56:29.509Z,99380.72
2022-12-19T20:58:34.083Z,99375.56
2022-12-19T21:00:36.005Z,99374.28
2022-12-19T21:03:16.867Z,99375.06
2022-12-19T21:04:59.914Z,99363.03
2022-12-19T21:07:04.696Z,99363.25
2022-12-19T21:09:10.823Z,99371.75
2022-12-19T21:11:13.410Z,99369.47
2022-12-19T21:13:15.156Z,99363.03
2022-12-19T21:15:16.963Z,99365.72
2022-12-19T21:17:20.100Z,99364.28
2022-12-19T21:19:21.809Z,99373.69
2022-12-19T21:21:26.172Z,99382.19
2022-12-19T21:23:28.720Z,99372.25
2022-12-19T21:25:33.513Z,99368.28
2022-12-19T21:27:35.213Z,99377.41
2022-12-19T21:29:36.933Z,99371.38
2022-12-19T21:31:39.462Z,99379.72
2022-12-19T21:33:41.200Z,99388.88
2022-12-19T21:35:42.940Z,99383.66
2022-12-19T21:37:50.008Z,99376.19
2022-12-19T21:39:53.397Z,99374.72
2022-12-19T21:41:54.997Z,99372.63
2022-12-19T21:43:57.241Z,99376.19
2022-12-19T21:46:09.345Z,99376.41
2022-12-19T21:48:11.419Z,99373.06
2022-12-19T21:50:17.039Z,99369.31
2022-12-19T21:52:20.458Z,99370.53
2022-12-19T21:54:24.532Z,99362.88
2022-12-19T21:56:55.678Z,99363.13
2022-12-19T21:58:59.459Z,99359.78
2022-12-19T22:01:10.428Z,99359.78
2022-12-19T22:03:14.505Z,99369.31
2022-12-19T22:05:17.027Z,99364.75
2022-12-19T22:07:18.627Z,99356.41
2022-12-19T22:09:22.990Z,99339.16
2022-12-19T22:11:24.979Z,99343.94
2022-12-19T22:13:26.668Z,99340.84
2022-12-19T22:15:32.116Z,99334.41
2022-12-19T22:17:33.795Z,99341.03
2022-12-19T22:19:39.212Z,99341.47
2022-12-19T22:21:40.993Z,99352.69
2022-12-19T22:23:42.732Z,99367.06
2022-12-19T22:25:44.726Z,99358.72
2022-12-19T22:27:46.312Z,99361.03
2022-12-19T22:29:47.969Z,99351.22
2022-12-19T22:31:55.753Z,99359.72
2022-12-19T22:34:03.960Z,99360.56
2022-12-19T22:36:09.249Z,99359.72
2022-12-19T22:38:13.084Z,99351.84
2022-12-19T22:40:16.112Z,99361.81
2022-12-19T22:42:17.678Z,99349.16
2022-12-19T22:44:26.480Z,99341.88
2022-12-19T22:46:31.065Z,99347.69
2022-12-19T22:48:37.652Z,99351.00
2022-12-19T22:50:45.473Z,99346.03
2022-12-19T22:52:47.056Z,99337.25
2022-12-19T22:54:48.531Z,99344.72
2022-12-19T22:56:52.287Z,99353.47
2022-12-19T22:58:56.045Z,99336.84
2022-12-19T23:00:57.716Z,99343.25
2022-12-19T23:02:59.644Z,99343.50
2022-12-19T23:05:02.493Z,99328.75
2022-12-19T23:07:04.499Z,99327.50
2022-12-19T23:09:07.593Z,99327.25
2022-12-19T23:11:14.963Z,99331.19
2022-12-19T23:13:16.604Z,99321.84
2022-12-19T23:15:18.157Z,99323.50
2022-12-19T23:17:24.413Z,99336.44
2022-12-19T23:19:26.030Z,99330.81
2022-12-19T23:21:28.587Z,99327.91
2022-12-19T23:23:30.244Z,99338.53
2022-12-19T23:25:31.967Z,99325.41
2022-12-19T23:27:33.644Z,99325.41
2022-12-19T23:29:35.179Z,99333.56
2022-12-19T23:31:40.500Z,99338.09
2022-12-19T23:33:44.329Z,99337.25
2022-12-19T23:35:45.891Z,99332.91
2022-12-19T23:37:50.303Z,99331.06
2022-12-19T23:39:51.821Z,99327.50
2022-12-19T23:41:53.517Z,99336.06
2022-12-19T23:43:55.109Z,99322.72
2022-12-19T23:45:56.798Z,99316.09
2022-12-19T23:47:58.411Z,99319.00
2022-12-19T23:49:59.958Z,99321.31
2022-12-19T23:52:01.750Z,99315.69
2022-12-19T23:54:03.422Z,99312.59
2022-12-19T23:56:10.059Z,99311.28
2022-12-19T23:58:16.662Z,99311.50
